createdAt,value
2019-05-22T00:02:37.461Z,18.03
2019-05-22T00:05:24.676Z,17.53
2019-05-22T00:07:57.922Z,18.40
2019-05-22T00:10:28.975Z,16.37
2019-05-22T00:12:59.564Z,17.77
2019-05-22T00:15:29.966Z,17.67
2019-05-22T00:18:01.177Z,16.37
2019-05-22T00:20:31.066Z,17.43
2019-05-22T00:23:04.022Z,17.87
2019-05-22T00:25:35.057Z,17.80
2019-05-22T00:28:04.695Z,18.47
2019-05-22T00:30:35.707Z,17.77
2019-05-22T00:33:05.774Z,19.27
2019-05-22T00:35:36.879Z,18.03
2019-05-22T00:38:07.089Z,18.67
2019-05-22T00:40:42.252Z,16.70
2019-05-22T00:43:14.465Z,17.80
2019-05-22T00:45:46.091Z,17.57
2019-05-22T00:48:18.619Z,17.57
2019-05-22T00:51:00.652Z,16.93
2019-05-22T00:53:45.017Z,17.27
2019-05-22T00:56:34.415Z,15.93
2019-05-22T00:59:13.747Z,15.70
2019-05-22T01:01:48.143Z,15.73
2019-05-22T01:04:20.155Z,14.57
2019-05-22T01:06:51.026Z,15.10
2019-05-22T01:09:31.639Z,14.67
2019-05-22T01:12:02.872Z,15.47
2019-05-22T01:14:42.684Z,16.00
2019-05-22T01:17:06.394Z,15.53
2019-05-22T01:19:35.222Z,15.77
2019-05-22T01:22:06.344Z,15.40
2019-05-22T01:24:37.809Z,14.50
2019-05-22T01:27:08.984Z,14.43
2019-05-22T01:29:38.905Z,15.53
2019-05-22T01:32:18.362Z,15.33
2019-05-22T01:34:47.476Z,17.07
2019-05-22T01:37:16.941Z,17.50
2019-05-22T01:40:00.526Z,17.82
2019-05-22T01:42:39.185Z,18.73
2019-05-22T01:45:11.450Z,19.23
2019-05-22T01:47:48.519Z,19.70
2019-05-22T01:50:26.751Z,20.95
2019-05-22T01:52:57.941Z,19.55
2019-05-22T01:55:27.756Z,20.83
2019-05-22T01:57:57.284Z,20.50
2019-05-22T02:00:28.115Z,21.73
2019-05-22T02:02:57.602Z,23.73
2019-05-22T02:05:26.383Z,26.03
2019-05-22T02:07:55.527Z,26.03
2019-05-22T02:10:30.012Z,27.33
2019-05-22T02:13:02.962Z,26.37
2019-05-22T02:15:32.537Z,27.25
2019-05-22T02:18:06.015Z,28.37
2019-05-22T02:20:35.381Z,28.23
2019-05-22T02:23:05.806Z,28.20
2019-05-22T02:25:35.998Z,26.37
2019-05-22T02:28:06.536Z,28.00
2019-05-22T02:30:38.096Z,28.20
2019-05-22T02:33:08.888Z,28.30
2019-05-22T02:35:39.398Z,28.97
2019-05-22T02:38:09.906Z,28.60
2019-05-22T02:40:41.713Z,27.73
2019-05-22T02:43:11.844Z,28.50
2019-05-22T02:45:41.563Z,26.23
2019-05-22T02:48:11.796Z,27.23
2019-05-22T02:50:42.516Z,25.17
2019-05-22T02:53:13.763Z,25.43
2019-05-22T02:55:42.958Z,25.40
2019-05-22T02:58:12.937Z,24.73
2019-05-22T03:01:01.343Z,20.67
2019-05-22T03:03:31.924Z,21.97
2019-05-22T03:06:04.210Z,19.57
2019-05-22T03:09:18.384Z,19.80
2019-05-22T03:12:06.035Z,19.57
2019-05-22T03:14:35.681Z,20.40
2019-05-22T03:17:09.603Z,20.33
2019-05-22T03:19:42.722Z,19.20
2019-05-22T03:22:24.959Z,19.70
2019-05-22T03:24:55.209Z,20.47
2019-05-22T03:27:36.404Z,20.10
2019-05-22T03:30:06.437Z,19.83
2019-05-22T03:32:43.117Z,21.43
2019-05-22T03:35:07.575Z,20.80
2019-05-22T03:37:37.693Z,22.17
2019-05-22T03:40:08.614Z,22.33
2019-05-22T03:42:37.632Z,23.13
2019-05-22T03:45:09.731Z,23.97
2019-05-22T03:47:40.487Z,22.75
2019-05-22T03:50:10.560Z,22.43
2019-05-22T03:52:40.073Z,22.42
2019-05-22T03:55:12.719Z,23.93
2019-05-22T03:57:42.371Z,23.35
2019-05-22T04:00:15.641Z,24.23
2019-05-22T04:02:46.424Z,23.33
2019-05-22T04:05:16.818Z,21.30
2019-05-22T04:07:47.981Z,23.22
2019-05-22T04:10:18.941Z,22.33
2019-05-22T04:12:50.028Z,21.80
2019-05-22T04:15:20.577Z,21.77
2019-05-22T04:17:49.671Z,23.05
2019-05-22T04:20:20.408Z,26.10
2019-05-22T04:22:56.245Z,21.48
2019-05-22T04:25:26.289Z,21.47
2019-05-22T04:27:55.697Z,21.20
2019-05-22T04:30:25.728Z,21.57
2019-05-22T04:32:55.029Z,20.97
2019-05-22T04:35:24.341Z,20.63
2019-05-22T04:37:53.374Z,20.77
2019-05-22T04:40:51.224Z,21.40
2019-05-22T04:43:24.980Z,19.02
2019-05-22T04:45:55.578Z,19.30
2019-05-22T04:48:27.299Z,18.13
2019-05-22T04:50:58.944Z,19.20
2019-05-22T04:53:29.701Z,17.87
2019-05-22T04:55:59.371Z,18.23
2019-05-22T04:58:31.142Z,16.57
2019-05-22T05:01:00.239Z,17.83
2019-05-22T05:03:29.289Z,17.50
2019-05-22T05:05:59.907Z,16.87
2019-05-22T05:08:29.924Z,17.12
2019-05-22T05:11:02.372Z,16.73
2019-05-22T05:13:31.788Z,16.80
2019-05-22T05:16:00.708Z,16.07
2019-05-22T05:18:30.522Z,17.00
2019-05-22T05:20:59.346Z,16.83
2019-05-22T05:23:29.067Z,17.57
2019-05-22T05:25:57.958Z,17.00
2019-05-22T05:28:28.083Z,16.40
2019-05-22T05:30:56.911Z,16.60
2019-05-22T05:33:26.794Z,16.30
2019-05-22T05:35:57.485Z,15.87
2019-05-22T05:38:34.707Z,15.37
2019-05-22T05:41:03.926Z,15.30
2019-05-22T05:43:33.272Z,15.20
2019-05-22T05:46:02.155Z,14.80
2019-05-22T05:48:33.089Z,14.03
2019-05-22T05:51:40.379Z,13.77
2019-05-22T05:54:14.931Z,13.00
2019-05-22T05:56:48.866Z,12.17
2019-05-22T05:59:20.325Z,11.47
2019-05-22T06:01:53.147Z,11.77
2019-05-22T06:04:35.008Z,11.63
2019-05-22T06:07:18.813Z,10.33
2019-05-22T06:09:51.489Z,10.77
2019-05-22T06:12:20.649Z,9.73
2019-05-22T06:14:50.524Z,9.10
2019-05-22T06:18:15.977Z,8.77
2019-05-22T06:21:01.221Z,9.93
2019-05-22T06:23:55.498Z,11.07
2019-05-22T06:26:57.730Z,10.93
2019-05-22T06:29:37.375Z,11.50
2019-05-22T06:32:48.672Z,12.57
2019-05-22T06:35:17.795Z,14.67
2019-05-22T06:38:04.275Z,15.43
2019-05-22T06:40:33.664Z,14.97
2019-05-22T06:43:52.636Z,14.57
2019-05-22T06:46:44.591Z,13.50
2019-05-22T06:49:45.312Z,12.73
2019-05-22T06:52:14.990Z,12.73
2019-05-22T06:54:44.315Z,12.90
2019-05-22T06:57:18.149Z,12.30
2019-05-22T06:59:48.955Z,12.60
2019-05-22T07:02:18.900Z,11.50
2019-05-22T07:04:48.105Z,10.73
2019-05-22T07:07:18.217Z,11.23
2019-05-22T07:09:47.410Z,11.50
2019-05-22T07:12:19.660Z,12.50
2019-05-22T07:15:25.370Z,11.33
2019-05-22T07:17:55.496Z,12.40
2019-05-22T07:20:27.278Z,12.37
2019-05-22T07:22:58.030Z,11.90
2019-05-22T07:25:27.935Z,11.77
2019-05-22T07:27:57.463Z,10.97
2019-05-22T07:30:26.758Z,11.83
2019-05-22T07:32:56.388Z,12.20
2019-05-22T07:35:44.094Z,12.73
2019-05-22T07:37:57.925Z,12.17
2019-05-22T07:40:27.387Z,12.07
2019-05-22T07:42:56.528Z,11.37
2019-05-22T07:45:29.247Z,11.73
2019-05-22T07:47:59.936Z,13.17
2019-05-22T07:50:33.738Z,12.07
2019-05-22T07:53:03.291Z,11.17
2019-05-22T07:55:33.855Z,10.75
2019-05-22T07:58:10.094Z,11.97
2019-05-22T08:00:42.542Z,12.00
2019-05-22T08:03:12.823Z,11.13
2019-05-22T08:05:49.840Z,11.63
2019-05-22T08:08:19.723Z,10.50
2019-05-22T08:10:49.038Z,10.03
2019-05-22T08:13:18.263Z,10.43
2019-05-22T08:15:48.230Z,10.72
2019-05-22T08:18:18.107Z,9.75
2019-05-22T08:20:46.972Z,10.33
2019-05-22T08:23:16.343Z,10.77
2019-05-22T08:25:45.792Z,12.00
2019-05-22T08:28:16.666Z,13.27
2019-05-22T08:30:47.785Z,13.10
2019-05-22T08:33:17.105Z,13.18
2019-05-22T08:35:46.903Z,12.63
2019-05-22T08:38:16.025Z,12.15
2019-05-22T08:40:46.899Z,13.90
2019-05-22T08:43:16.021Z,12.20
2019-05-22T08:45:46.122Z,13.93
2019-05-22T08:48:16.683Z,14.20
2019-05-22T08:50:46.285Z,14.87
2019-05-22T08:53:16.417Z,15.05
2019-05-22T08:55:45.620Z,14.03
2019-05-22T08:58:15.464Z,14.67
2019-05-22T09:00:45.193Z,14.03
2019-05-22T09:03:15.582Z,14.00
2019-05-22T09:05:44.917Z,12.90
2019-05-22T09:08:13.796Z,12.20
2019-05-22T09:10:42.878Z,12.10
2019-05-22T09:13:12.291Z,13.07
2019-05-22T09:15:42.343Z,12.90
2019-05-22T09:18:11.998Z,13.00
2019-05-22T09:20:49.425Z,13.80
2019-05-22T09:23:13.032Z,12.97
2019-05-22T09:25:42.333Z,12.93
2019-05-22T09:28:11.248Z,12.00
2019-05-22T09:30:40.009Z,13.20
2019-05-22T09:33:11.018Z,12.30
2019-05-22T09:35:40.681Z,12.73
2019-05-22T09:38:09.851Z,12.50
2019-05-22T09:40:39.345Z,14.27
2019-05-22T09:43:08.107Z,12.37
2019-05-22T09:45:37.704Z,14.87
2019-05-22T09:48:07.774Z,15.43
2019-05-22T09:50:37.266Z,14.63
2019-05-22T09:53:07.892Z,15.97
2019-05-22T09:55:37.579Z,15.53
2019-05-22T09:58:08.796Z,15.50
2019-05-22T10:00:38.888Z,15.97
2019-05-22T10:03:08.613Z,15.70
2019-05-22T10:05:37.535Z,17.17
2019-05-22T10:08:07.589Z,15.03
2019-05-22T10:10:37.098Z,16.23
2019-05-22T10:13:06.404Z,17.23
2019-05-22T10:15:35.632Z,18.02
2019-05-22T10:18:05.006Z,18.73
2019-05-22T10:20:34.402Z,16.02
2019-05-22T10:23:15.290Z,16.07
2019-05-22T10:25:37.209Z,16.00
2019-05-22T10:28:07.067Z,16.17
2019-05-22T10:30:36.122Z,15.50
2019-05-22T10:33:05.811Z,16.30
2019-05-22T10:35:37.151Z,14.73
2019-05-22T10:38:07.177Z,16.47
2019-05-22T10:40:36.055Z,15.63
2019-05-22T10:43:05.547Z,15.50
2019-05-22T10:45:35.351Z,15.60
2019-05-22T10:48:04.927Z,15.93
2019-05-22T10:50:34.717Z,15.50
2019-05-22T10:53:03.818Z,13.83
2019-05-22T10:55:33.578Z,13.63
2019-05-22T10:58:03.115Z,14.00
2019-05-22T11:00:32.255Z,13.47
2019-05-22T11:03:01.250Z,13.70
2019-05-22T11:05:30.836Z,13.70
2019-05-22T11:08:01.674Z,11.70
2019-05-22T11:10:30.543Z,12.67
2019-05-22T11:13:00.485Z,13.25
2019-05-22T11:15:29.805Z,12.98
2019-05-22T11:17:59.080Z,13.40
2019-05-22T11:20:28.406Z,13.23
2019-05-22T11:22:58.025Z,12.33
2019-05-22T11:25:27.182Z,13.10
2019-05-22T11:27:56.003Z,12.97
2019-05-22T11:30:25.413Z,13.85
2019-05-22T11:32:54.498Z,12.97
2019-05-22T11:35:23.713Z,12.87
2019-05-22T11:37:52.636Z,12.80
2019-05-22T11:40:23.504Z,13.60
2019-05-22T11:42:53.409Z,13.30
2019-05-22T11:45:23.524Z,13.37
2019-05-22T11:47:53.554Z,13.17
2019-05-22T11:50:23.497Z,12.77
2019-05-22T11:52:53.185Z,13.97
2019-05-22T11:55:22.952Z,13.03
2019-05-22T11:57:53.645Z,13.40
2019-05-22T12:00:23.481Z,13.43
2019-05-22T12:02:54.169Z,12.75
2019-05-22T12:05:24.409Z,13.33
2019-05-22T12:07:54.092Z,13.93
2019-05-22T12:10:25.258Z,14.20
2019-05-22T12:12:56.072Z,13.95
2019-05-22T12:15:29.344Z,12.40
2019-05-22T12:17:58.776Z,14.87
2019-05-22T12:20:29.289Z,14.43
2019-05-22T12:22:58.447Z,14.50
2019-05-22T12:25:27.721Z,14.40
2019-05-22T12:27:57.932Z,13.70
2019-05-22T12:30:27.934Z,14.00
2019-05-22T12:32:57.352Z,12.47
2019-05-22T12:35:27.556Z,13.73
2019-05-22T12:37:58.343Z,13.70
2019-05-22T12:40:31.942Z,14.13
2019-05-22T12:43:01.949Z,12.70
2019-05-22T12:45:32.093Z,12.23
2019-05-22T12:48:02.024Z,13.20
2019-05-22T12:50:32.060Z,12.23
2019-05-22T12:53:05.152Z,12.17
2019-05-22T12:55:34.468Z,11.85
2019-05-22T12:58:04.977Z,12.40
2019-05-22T13:00:34.611Z,14.18
2019-05-22T13:03:04.664Z,12.57
2019-05-22T13:05:36.895Z,13.03
2019-05-22T13:08:06.908Z,12.83
2019-05-22T13:10:36.657Z,11.47
2019-05-22T13:13:05.869Z,12.27
2019-05-22T13:15:38.587Z,12.78
2019-05-22T13:18:10.488Z,12.63
2019-05-22T13:20:46.421Z,12.30
2019-05-22T13:23:17.534Z,12.20
2019-05-22T13:25:46.995Z,12.47
2019-05-22T13:28:18.240Z,11.30
2019-05-22T13:30:52.816Z,12.40
2019-05-22T13:33:26.106Z,10.90
2019-05-22T13:35:57.335Z,10.23
2019-05-22T13:38:26.841Z,10.20
2019-05-22T13:40:56.766Z,8.98
2019-05-22T13:43:27.523Z,9.53
2019-05-22T13:45:56.887Z,9.90
2019-05-22T13:48:27.647Z,10.47
2019-05-22T13:50:59.156Z,9.63
2019-05-22T13:53:29.349Z,8.77
2019-05-22T13:55:59.128Z,9.50
2019-05-22T13:58:29.062Z,9.20
2019-05-22T14:00:58.550Z,8.77
2019-05-22T14:03:27.929Z,9.58
2019-05-22T14:05:57.313Z,8.13
2019-05-22T14:08:26.688Z,9.68
2019-05-22T14:10:56.646Z,9.17
2019-05-22T14:13:26.961Z,9.03
2019-05-22T14:15:57.460Z,8.20
2019-05-22T14:18:27.530Z,8.63
2019-05-22T14:20:56.490Z,8.30
2019-05-22T14:23:25.319Z,8.50
2019-05-22T14:25:54.589Z,8.50
2019-05-22T14:28:25.305Z,8.37
2019-05-22T14:30:54.507Z,8.15
2019-05-22T14:33:28.068Z,8.37
2019-05-22T14:35:57.047Z,7.72
2019-05-22T14:38:27.012Z,7.97
2019-05-22T14:40:56.724Z,7.37
2019-05-22T14:43:26.021Z,8.03
2019-05-22T14:45:55.680Z,7.60
2019-05-22T14:48:24.866Z,7.30
2019-05-22T14:50:54.851Z,7.47
2019-05-22T14:53:23.957Z,7.67
2019-05-22T14:55:53.744Z,7.17
2019-05-22T14:58:23.337Z,7.40
2019-05-22T15:00:53.761Z,7.77
2019-05-22T15:03:23.972Z,7.63
2019-05-22T15:05:54.094Z,8.77
2019-05-22T15:08:23.354Z,9.28
2019-05-22T15:10:52.950Z,8.90
2019-05-22T15:13:23.073Z,8.75
2019-05-22T15:15:52.593Z,8.63
2019-05-22T15:18:21.440Z,8.20
2019-05-22T15:20:56.467Z,18.00
2019-05-22T15:23:26.787Z,10.95
2019-05-22T15:25:55.742Z,10.00
2019-05-22T15:28:27.147Z,8.15
2019-05-22T15:30:56.578Z,9.13
2019-05-22T15:33:25.810Z,7.60
2019-05-22T15:35:54.683Z,7.30
2019-05-22T15:38:23.850Z,7.27
2019-05-22T15:40:53.691Z,8.50
2019-05-22T15:43:24.980Z,8.80
2019-05-22T15:45:55.377Z,8.03
2019-05-22T15:48:29.907Z,9.13
2019-05-22T15:51:03.132Z,9.30
2019-05-22T15:53:33.200Z,8.47
2019-05-22T15:56:04.055Z,7.23
2019-05-22T15:58:34.945Z,7.47
2019-05-22T16:01:06.151Z,7.95
2019-05-22T16:03:36.545Z,7.20
2019-05-22T16:06:07.519Z,9.77
2019-05-22T16:08:37.393Z,8.57
2019-05-22T16:11:09.255Z,7.83
2019-05-22T16:13:38.625Z,7.13
2019-05-22T16:16:09.468Z,7.30
2019-05-22T16:18:38.960Z,6.50
2019-05-22T16:21:09.795Z,6.60
2019-05-22T16:23:39.525Z,6.30
2019-05-22T16:26:09.847Z,8.50
2019-05-22T16:28:40.749Z,7.63
2019-05-22T16:31:12.353Z,8.17
2019-05-22T16:33:43.108Z,7.40
2019-05-22T16:36:13.162Z,8.10
2019-05-22T16:38:43.708Z,7.70
2019-05-22T16:41:13.507Z,7.93
2019-05-22T16:43:49.638Z,10.13
2019-05-22T16:46:17.918Z,9.20
2019-05-22T16:48:48.611Z,7.20
2019-05-22T16:51:18.211Z,7.27
2019-05-22T16:53:54.454Z,6.53
2019-05-22T16:56:25.357Z,6.50
2019-05-22T16:58:54.571Z,6.00
2019-05-22T17:01:26.376Z,5.80
2019-05-22T17:03:58.565Z,6.03
2019-05-22T17:06:28.064Z,9.43
2019-05-22T17:08:58.988Z,7.85
2019-05-22T17:11:28.628Z,6.90
2019-05-22T17:14:01.550Z,6.83
2019-05-22T17:16:36.852Z,7.37
2019-05-22T17:19:23.795Z,7.78
2019-05-22T17:21:40.968Z,7.83
2019-05-22T17:24:11.419Z,7.60
2019-05-22T17:29:31.945Z,5.73
2019-05-22T17:32:05.018Z,6.70
2019-05-22T17:34:35.360Z,7.97
2019-05-22T17:37:09.495Z,5.80
2019-05-22T17:39:41.515Z,6.17
2019-05-22T17:42:14.713Z,5.62
2019-05-22T17:44:45.817Z,6.03
2019-05-22T17:47:17.855Z,5.75
2019-05-22T17:49:49.024Z,5.87
2019-05-22T17:52:20.902Z,6.30
2019-05-22T17:54:51.894Z,5.90
2019-05-22T17:57:23.024Z,5.87
2019-05-22T17:59:53.467Z,5.93
2019-05-22T18:02:24.778Z,6.10
2019-05-22T18:04:53.572Z,5.30
2019-05-22T18:07:22.648Z,5.80
2019-05-22T18:09:51.808Z,5.80
2019-05-22T18:12:22.320Z,6.10
2019-05-22T18:14:51.554Z,5.55
2019-05-22T18:17:20.358Z,5.40
2019-05-22T18:19:49.310Z,6.08
2019-05-22T18:22:18.357Z,5.40
2019-05-22T18:24:47.298Z,5.28
2019-05-22T18:27:16.129Z,5.20
2019-05-22T18:29:47.073Z,5.70
2019-05-22T18:32:16.084Z,12.40
2019-05-22T18:34:44.909Z,6.87
2019-05-22T18:37:14.055Z,6.63
2019-05-22T18:39:45.317Z,5.90
2019-05-22T18:42:14.381Z,5.40
2019-05-22T18:44:45.302Z,5.83
2019-05-22T18:47:16.261Z,5.78
2019-05-22T18:49:45.546Z,5.90
2019-05-22T18:52:14.311Z,5.60
2019-05-22T18:54:43.096Z,6.17
2019-05-22T18:57:11.937Z,6.80
2019-05-22T18:59:40.679Z,6.43
2019-05-22T19:02:10.893Z,6.10
2019-05-22T19:04:39.748Z,6.67
2019-05-22T19:07:08.557Z,6.33
2019-05-22T19:09:37.445Z,6.13
2019-05-22T19:12:06.336Z,6.20
2019-05-22T19:14:35.806Z,6.45
2019-05-22T19:17:05.754Z,6.70
2019-05-22T19:19:35.817Z,7.08
2019-05-22T19:22:04.978Z,7.53
2019-05-22T19:24:33.940Z,6.50
2019-05-22T19:27:03.059Z,7.10
2019-05-22T19:29:32.331Z,6.73
2019-05-22T19:32:01.274Z,7.10
2019-05-22T19:34:30.685Z,6.90
2019-05-22T19:36:59.553Z,6.70
2019-05-22T19:39:29.102Z,6.70
2019-05-22T19:42:03.752Z,6.70
2019-05-22T19:44:29.203Z,7.13
2019-05-22T19:46:58.027Z,6.83
2019-05-22T19:49:28.028Z,6.77
2019-05-22T19:51:57.679Z,7.03
2019-05-22T19:54:26.579Z,6.80
2019-05-22T19:56:56.733Z,7.10
2019-05-22T19:59:26.544Z,7.07
2019-05-22T20:01:56.135Z,7.33
2019-05-22T20:04:25.610Z,7.37
2019-05-22T20:06:54.985Z,7.20
2019-05-22T20:09:25.412Z,7.75
2019-05-22T20:11:54.780Z,7.93
2019-05-22T20:14:23.953Z,7.58
2019-05-22T20:16:53.777Z,8.17
2019-05-22T20:19:22.574Z,7.75
2019-05-22T20:21:53.111Z,7.50
2019-05-22T20:24:22.306Z,8.00
2019-05-22T20:26:51.505Z,7.67
2019-05-22T20:29:21.382Z,7.90
2019-05-22T20:31:50.710Z,8.50
2019-05-22T20:34:22.987Z,8.20
2019-05-22T20:36:51.978Z,8.43
2019-05-22T20:39:21.500Z,7.77
2019-05-22T20:41:51.850Z,8.25
2019-05-22T20:44:22.826Z,8.30
2019-05-22T20:46:52.788Z,8.18
2019-05-22T20:49:22.476Z,7.87
2019-05-22T20:51:52.494Z,8.35
2019-05-22T20:54:22.787Z,8.80
2019-05-22T20:56:54.007Z,8.35
2019-05-22T20:59:24.355Z,8.50
2019-05-22T21:01:55.478Z,8.85
2019-05-22T21:04:27.201Z,9.40
2019-05-22T21:07:01.686Z,8.48
2019-05-22T21:09:32.593Z,9.57
2019-05-22T21:12:03.360Z,9.77
2019-05-22T21:14:32.688Z,9.53
2019-05-22T21:17:02.413Z,10.35
2019-05-22T21:19:32.588Z,10.73
2019-05-22T21:22:02.912Z,10.40
2019-05-22T21:24:32.259Z,10.47
2019-05-22T21:27:04.493Z,10.23
2019-05-22T21:29:33.747Z,10.00
2019-05-22T21:32:06.132Z,10.63
2019-05-22T21:34:35.315Z,9.43
2019-05-22T21:37:06.460Z,10.57
2019-05-22T21:39:37.485Z,9.73
2019-05-22T21:42:08.070Z,9.63
2019-05-22T21:44:37.187Z,9.53
2019-05-22T21:47:07.496Z,9.70
2019-05-22T21:49:38.803Z,9.17
2019-05-22T21:52:08.349Z,9.55
2019-05-22T21:54:39.374Z,9.55
2019-05-22T21:57:10.391Z,9.37
2019-05-22T21:59:40.513Z,9.65
2019-05-22T22:05:07.830Z,10.03
2019-05-22T22:07:37.098Z,9.33
2019-05-22T22:10:07.107Z,9.97
2019-05-22T22:12:37.311Z,10.13
2019-05-22T22:15:07.907Z,10.37
2019-05-22T22:17:39.062Z,10.28
2019-05-22T22:20:08.797Z,10.63
2019-05-22T22:22:38.467Z,11.10
2019-05-22T22:25:08.397Z,10.55
2019-05-22T22:27:38.527Z,10.40
2019-05-22T22:30:15.042Z,10.20
2019-05-22T22:32:45.523Z,10.40
2019-05-22T22:35:16.355Z,11.03
2019-05-22T22:37:46.485Z,11.90
2019-05-22T22:40:18.496Z,11.00
2019-05-22T22:42:49.046Z,11.43
2019-05-22T22:45:27.232Z,10.35
2019-05-22T22:47:56.259Z,10.97
2019-05-22T22:50:25.994Z,10.27
2019-05-22T22:52:55.468Z,11.50
2019-05-22T22:55:26.865Z,10.98
2019-05-22T22:57:56.575Z,10.23
2019-05-22T23:00:34.150Z,11.07
2019-05-22T23:03:03.136Z,10.60
2019-05-22T23:05:35.472Z,11.23
2019-05-22T23:08:05.388Z,11.20
2019-05-22T23:10:34.199Z,11.97
2019-05-22T23:13:05.361Z,11.27
2019-05-22T23:15:35.363Z,11.78
2019-05-22T23:18:06.036Z,11.93
2019-05-22T23:20:33.953Z,12.23
2019-05-22T23:23:01.518Z,10.27
2019-05-22T23:25:32.272Z,10.30
2019-05-22T23:28:02.621Z,10.77
2019-05-22T23:30:32.289Z,10.40
2019-05-22T23:33:03.224Z,10.53
2019-05-22T23:35:32.054Z,10.80
2019-05-22T23:38:02.020Z,11.63
2019-05-22T23:40:34.221Z,11.00
2019-05-22T23:43:04.783Z,11.10
2019-05-22T23:45:35.346Z,11.63
2019-05-22T23:48:11.897Z,11.07
2019-05-22T23:50:41.741Z,11.70
2019-05-22T23:53:12.168Z,11.18
2019-05-22T23:55:43.199Z,11.57
2019-05-22T23:58:14.131Z,11.68
